sensor_id;sensor_type;location;lat;lon;timestamp;P1;durP1;ratioP1;P2;durP2;ratioP2
75135;SDS011;63707;52.212;9.540;2022-10-03T00:02:27;15.80;;;1.42;;
75135;SDS011;63707;52.212;9.540;2022-10-03T00:05:23;14.82;;;1.60;;
75135;SDS011;63707;52.212;9.540;2022-10-03T00:08:03;18.33;;;1.70;;
75135;SDS011;63707;52.212;9.540;2022-10-03T00:10:45;12.15;;;1.85;;
75135;SDS011;63707;52.212;9.540;2022-10-03T00:13:20;18.23;;;2.00;;
75135;SDS011;63707;52.212;9.540;2022-10-03T00:15:53;20.08;;;1.92;;
75135;SDS011;63707;52.212;9.540;2022-10-03T00:18:31;10.70;;;1.65;;
75135;SDS011;63707;52.212;9.540;2022-10-03T00:21:05;13.43;;;1.60;;
75135;SDS011;63707;52.212;9.540;2022-10-03T00:23:43;15.55;;;2.33;;
75135;SDS011;63707;52.212;9.540;2022-10-03T00:26:18;7.95;;;1.65;;
75135;SDS011;63707;52.212;9.540;2022-10-03T00:28:56;15.63;;;1.77;;
75135;SDS011;63707;52.212;9.540;2022-10-03T00:31:39;14.73;;;1.75;;
75135;SDS011;63707;52.212;9.540;2022-10-03T00:34:13;13.30;;;2.08;;
75135;SDS011;63707;52.212;9.540;2022-10-03T00:36:47;18.05;;;1.98;;
75135;SDS011;63707;52.212;9.540;2022-10-03T00:39:30;20.88;;;2.13;;
75135;SDS011;63707;52.212;9.540;2022-10-03T00:45:25;12.55;;;1.88;;
75135;SDS011;63707;52.212;9.540;2022-10-03T00:51:12;7.10;;;1.40;;
75135;SDS011;63707;52.212;9.540;2022-10-03T00:53:49;11.18;;;1.73;;
75135;SDS011;63707;52.212;9.540;2022-10-03T00:56:30;17.42;;;2.13;;
75135;SDS011;63707;52.212;9.540;2022-10-03T00:59:14;10.32;;;1.75;;
75135;SDS011;63707;52.212;9.540;2022-10-03T01:01:53;13.93;;;1.63;;
75135;SDS011;63707;52.212;9.540;2022-10-03T01:04:27;9.48;;;1.83;;
75135;SDS011;63707;52.212;9.540;2022-10-03T01:07:17;15.13;;;2.25;;
75135;SDS011;63707;52.212;9.540;2022-10-03T01:10:05;16.00;;;2.22;;
75135;SDS011;63707;52.212;9.540;2022-10-03T01:13:02;8.85;;;1.30;;
75135;SDS011;63707;52.212;9.540;2022-10-03T01:15:44;10.55;;;1.48;;
75135;SDS011;63707;52.212;9.540;2022-10-03T01:18:18;12.38;;;1.30;;
75135;SDS011;63707;52.212;9.540;2022-10-03T01:20:57;14.35;;;1.70;;
75135;SDS011;63707;52.212;9.540;2022-10-03T01:26:46;8.25;;;1.60;;
75135;SDS011;63707;52.212;9.540;2022-10-03T01:29:22;14.57;;;1.50;;
75135;SDS011;63707;52.212;9.540;2022-10-03T01:32:14;17.02;;;1.65;;
75135;SDS011;63707;52.212;9.540;2022-10-03T01:34:45;10.98;;;1.60;;
75135;SDS011;63707;52.212;9.540;2022-10-03T01:37:19;10.77;;;1.60;;
75135;SDS011;63707;52.212;9.540;2022-10-03T01:39:49;12.50;;;1.33;;
75135;SDS011;63707;52.212;9.540;2022-10-03T01:42:28;14.52;;;1.50;;
75135;SDS011;63707;52.212;9.540;2022-10-03T01:45:06;11.27;;;1.55;;
75135;SDS011;63707;52.212;9.540;2022-10-03T01:47:45;16.75;;;1.83;;
75135;SDS011;63707;52.212;9.540;2022-10-03T01:50:18;20.42;;;1.63;;
75135;SDS011;63707;52.212;9.540;2022-10-03T01:55:22;7.88;;;1.30;;
75135;SDS011;63707;52.212;9.540;2022-10-03T01:57:59;11.20;;;1.70;;
75135;SDS011;63707;52.212;9.540;2022-10-03T02:00:34;12.52;;;1.67;;
75135;SDS011;63707;52.212;9.540;2022-10-03T02:03:10;10.15;;;1.30;;
75135;SDS011;63707;52.212;9.540;2022-10-03T02:05:46;5.38;;;1.48;;
75135;SDS011;63707;52.212;9.540;2022-10-03T02:08:21;9.50;;;1.23;;
75135;SDS011;63707;52.212;9.540;2022-10-03T02:10:54;17.65;;;2.03;;
75135;SDS011;63707;52.212;9.540;2022-10-03T02:13:26;9.65;;;1.75;;
75135;SDS011;63707;52.212;9.540;2022-10-03T02:16:06;11.40;;;1.80;;
75135;SDS011;63707;52.212;9.540;2022-10-03T02:18:36;12.65;;;2.13;;
75135;SDS011;63707;52.212;9.540;2022-10-03T02:21:10;18.10;;;2.17;;
75135;SDS011;63707;52.212;9.540;2022-10-03T02:23:42;15.02;;;1.75;;
75135;SDS011;63707;52.212;9.540;2022-10-03T02:29:15;11.75;;;2.08;;
75135;SDS011;63707;52.212;9.540;2022-10-03T02:35:14;15.93;;;1.80;;
75135;SDS011;63707;52.212;9.540;2022-10-03T02:37:59;26.52;;;1.40;;
75135;SDS011;63707;52.212;9.540;2022-10-03T02:43:49;9.63;;;1.35;;
75135;SDS011;63707;52.212;9.540;2022-10-03T02:46:39;14.90;;;2.30;;
75135;SDS011;63707;52.212;9.540;2022-10-03T02:49:36;12.10;;;1.80;;
75135;SDS011;63707;52.212;9.540;2022-10-03T02:52:30;12.32;;;1.50;;
75135;SDS011;63707;52.212;9.540;2022-10-03T02:58:40;14.80;;;1.67;;
75135;SDS011;63707;52.212;9.540;2022-10-03T03:04:35;11.48;;;1.52;;
75135;SDS011;63707;52.212;9.540;2022-10-03T03:07:31;14.43;;;2.17;;
75135;SDS011;63707;52.212;9.540;2022-10-03T03:10:15;14.85;;;1.90;;
75135;SDS011;63707;52.212;9.540;2022-10-03T03:13:19;10.15;;;1.98;;
75135;SDS011;63707;52.212;9.540;2022-10-03T03:16:23;12.68;;;2.25;;
75135;SDS011;63707;52.212;9.540;2022-10-03T03:22:10;16.48;;;1.73;;
75135;SDS011;63707;52.212;9.540;2022-10-03T03:25:01;16.55;;;2.28;;
75135;SDS011;63707;52.212;9.540;2022-10-03T03:27:57;10.20;;;2.20;;
75135;SDS011;63707;52.212;9.540;2022-10-03T03:30:46;16.45;;;2.20;;
75135;SDS011;63707;52.212;9.540;2022-10-03T03:33:23;8.75;;;2.05;;
75135;SDS011;63707;52.212;9.540;2022-10-03T03:35:59;21.52;;;2.30;;
75135;SDS011;63707;52.212;9.540;2022-10-03T03:38:34;10.57;;;2.28;;
75135;SDS011;63707;52.212;9.540;2022-10-03T03:41:08;16.20;;;2.03;;
75135;SDS011;63707;52.212;9.540;2022-10-03T03:44:03;17.73;;;2.50;;
75135;SDS011;63707;52.212;9.540;2022-10-03T03:46:44;15.90;;;1.88;;
75135;SDS011;63707;52.212;9.540;2022-10-03T03:49:32;12.52;;;1.80;;
75135;SDS011;63707;52.212;9.540;2022-10-03T03:52:17;18.73;;;2.20;;
75135;SDS011;63707;52.212;9.540;2022-10-03T03:55:05;10.77;;;2.25;;
75135;SDS011;63707;52.212;9.540;2022-10-03T03:57:44;10.98;;;1.80;;
75135;SDS011;63707;52.212;9.540;2022-10-03T04:00:25;17.42;;;2.20;;
75135;SDS011;63707;52.212;9.540;2022-10-03T04:03:02;14.25;;;1.88;;
75135;SDS011;63707;52.212;9.540;2022-10-03T04:05:43;6.03;;;1.88;;
75135;SDS011;63707;52.212;9.540;2022-10-03T04:08:32;12.48;;;1.63;;
75135;SDS011;63707;52.212;9.540;2022-10-03T04:11:14;15.15;;;2.17;;
75135;SDS011;63707;52.212;9.540;2022-10-03T04:16:55;15.65;;;2.20;;
75135;SDS011;63707;52.212;9.540;2022-10-03T04:19:57;7.60;;;1.83;;
75135;SDS011;63707;52.212;9.540;2022-10-03T04:22:41;12.82;;;1.95;;
75135;SDS011;63707;52.212;9.540;2022-10-03T04:25:30;21.95;;;2.45;;
75135;SDS011;63707;52.212;9.540;2022-10-03T04:31:14;14.73;;;2.20;;
75135;SDS011;63707;52.212;9.540;2022-10-03T04:34:00;17.30;;;2.72;;
75135;SDS011;63707;52.212;9.540;2022-10-03T04:36:43;20.48;;;2.75;;
75135;SDS011;63707;52.212;9.540;2022-10-03T04:39:26;20.42;;;2.55;;
75135;SDS011;63707;52.212;9.540;2022-10-03T04:42:01;18.88;;;2.75;;
75135;SDS011;63707;52.212;9.540;2022-10-03T04:44:42;12.43;;;2.30;;
75135;SDS011;63707;52.212;9.540;2022-10-03T04:47:20;22.90;;;3.08;;
75135;SDS011;63707;52.212;9.540;2022-10-03T04:49:50;11.68;;;2.15;;
75135;SDS011;63707;52.212;9.540;2022-10-03T04:52:24;20.85;;;2.80;;
75135;SDS011;63707;52.212;9.540;2022-10-03T04:55:02;9.05;;;2.50;;
75135;SDS011;63707;52.212;9.540;2022-10-03T04:57:41;16.73;;;2.72;;
75135;SDS011;63707;52.212;9.540;2022-10-03T05:00:15;24.15;;;2.38;;
75135;SDS011;63707;52.212;9.540;2022-10-03T05:02:51;10.68;;;2.35;;
75135;SDS011;63707;52.212;9.540;2022-10-03T05:05:28;17.42;;;3.45;;
75135;SDS011;63707;52.212;9.540;2022-10-03T05:08:11;11.55;;;2.22;;
75135;SDS011;63707;52.212;9.540;2022-10-03T05:10:47;13.45;;;2.58;;
75135;SDS011;63707;52.212;9.540;2022-10-03T05:13:21;8.52;;;2.28;;
75135;SDS011;63707;52.212;9.540;2022-10-03T05:15:58;8.30;;;2.53;;
75135;SDS011;63707;52.212;9.540;2022-10-03T05:18:36;18.35;;;2.88;;
75135;SDS011;63707;52.212;9.540;2022-10-03T05:21:08;11.88;;;2.20;;
75135;SDS011;63707;52.212;9.540;2022-10-03T05:23:42;17.77;;;2.83;;
75135;SDS011;63707;52.212;9.540;2022-10-03T05:26:18;16.98;;;2.35;;
75135;SDS011;63707;52.212;9.540;2022-10-03T05:28:49;23.00;;;3.03;;
75135;SDS011;63707;52.212;9.540;2022-10-03T05:31:29;16.00;;;2.88;;
75135;SDS011;63707;52.212;9.540;2022-10-03T05:34:07;13.07;;;2.63;;
75135;SDS011;63707;52.212;9.540;2022-10-03T05:36:48;16.02;;;2.45;;
75135;SDS011;63707;52.212;9.540;2022-10-03T05:39:29;17.55;;;2.97;;
75135;SDS011;63707;52.212;9.540;2022-10-03T05:42:21;12.70;;;2.58;;
75135;SDS011;63707;52.212;9.540;2022-10-03T05:45:13;11.95;;;2.50;;
75135;SDS011;63707;52.212;9.540;2022-10-03T05:47:48;21.17;;;2.75;;
75135;SDS011;63707;52.212;9.540;2022-10-03T05:53:33;14.55;;;2.67;;
75135;SDS011;63707;52.212;9.540;2022-10-03T05:56:18;12.57;;;3.03;;
75135;SDS011;63707;52.212;9.540;2022-10-03T05:58:56;15.85;;;2.72;;
75135;SDS011;63707;52.212;9.540;2022-10-03T06:04:56;9.57;;;3.35;;
75135;SDS011;63707;52.212;9.540;2022-10-03T06:07:40;16.95;;;2.38;;
75135;SDS011;63707;52.212;9.540;2022-10-03T06:13:19;16.17;;;2.08;;
75135;SDS011;63707;52.212;9.540;2022-10-03T06:15:58;14.52;;;2.30;;
75135;SDS011;63707;52.212;9.540;2022-10-03T06:18:55;16.75;;;2.35;;
75135;SDS011;63707;52.212;9.540;2022-10-03T06:21:45;8.57;;;2.28;;
75135;SDS011;63707;52.212;9.540;2022-10-03T06:25:01;10.85;;;2.75;;
75135;SDS011;63707;52.212;9.540;2022-10-03T06:30:53;12.43;;;1.85;;
75135;SDS011;63707;52.212;9.540;2022-10-03T06:36:33;11.75;;;2.58;;
75135;SDS011;63707;52.212;9.540;2022-10-03T06:39:30;14.25;;;2.47;;
75135;SDS011;63707;52.212;9.540;2022-10-03T06:48:33;15.25;;;2.20;;
75135;SDS011;63707;52.212;9.540;2022-10-03T06:57:29;10.55;;;2.25;;
75135;SDS011;63707;52.212;9.540;2022-10-03T07:00:15;17.17;;;2.70;;
75135;SDS011;63707;52.212;9.540;2022-10-03T07:05:53;9.20;;;1.55;;
75135;SDS011;63707;52.212;9.540;2022-10-03T07:11:34;15.40;;;2.20;;
75135;SDS011;63707;52.212;9.540;2022-10-03T07:17:27;11.02;;;2.03;;
75135;SDS011;63707;52.212;9.540;2022-10-03T07:26:29;18.77;;;2.35;;
75135;SDS011;63707;52.212;9.540;2022-10-03T07:32:23;7.95;;;1.33;;
75135;SDS011;63707;52.212;9.540;2022-10-03T07:44:46;7.87;;;1.57;;
75135;SDS011;63707;52.212;9.540;2022-10-03T07:48:12;7.18;;;1.42;;
75135;SDS011;63707;52.212;9.540;2022-10-03T07:50:57;7.15;;;1.80;;
75135;SDS011;63707;52.212;9.540;2022-10-03T07:56:44;4.47;;;1.63;;
75135;SDS011;63707;52.212;9.540;2022-10-03T07:59:36;8.40;;;1.90;;
75135;SDS011;63707;52.212;9.540;2022-10-03T08:02:29;10.65;;;2.03;;
75135;SDS011;63707;52.212;9.540;2022-10-03T08:05:18;7.65;;;1.90;;
75135;SDS011;63707;52.212;9.540;2022-10-03T08:08:07;6.82;;;1.75;;
75135;SDS011;63707;52.212;9.540;2022-10-03T08:10:55;9.07;;;1.70;;
75135;SDS011;63707;52.212;9.540;2022-10-03T08:13:39;9.15;;;1.55;;
75135;SDS011;63707;52.212;9.540;2022-10-03T08:16:26;7.78;;;1.95;;
75135;SDS011;63707;52.212;9.540;2022-10-03T08:19:12;8.02;;;1.67;;
75135;SDS011;63707;52.212;9.540;2022-10-03T08:21:54;7.97;;;1.65;;
75135;SDS011;63707;52.212;9.540;2022-10-03T08:24:32;10.02;;;1.55;;
75135;SDS011;63707;52.212;9.540;2022-10-03T08:30:18;10.30;;;1.58;;
75135;SDS011;63707;52.212;9.540;2022-10-03T08:36:00;9.15;;;1.75;;
75135;SDS011;63707;52.212;9.540;2022-10-03T08:39:00;7.25;;;1.88;;
75135;SDS011;63707;52.212;9.540;2022-10-03T08:44:52;9.25;;;1.77;;
75135;SDS011;63707;52.212;9.540;2022-10-03T08:50:49;6.97;;;1.90;;
75135;SDS011;63707;52.212;9.540;2022-10-03T08:53:38;6.18;;;1.23;;
75135;SDS011;63707;52.212;9.540;2022-10-03T08:56:21;10.00;;;2.20;;
75135;SDS011;63707;52.212;9.540;2022-10-03T09:01:46;7.90;;;2.30;;
75135;SDS011;63707;52.212;9.540;2022-10-03T09:07:32;6.28;;;1.98;;
75135;SDS011;63707;52.212;9.540;2022-10-03T09:10:31;6.55;;;2.33;;
75135;SDS011;63707;52.212;9.540;2022-10-03T09:16:18;8.55;;;1.30;;
75135;SDS011;63707;52.212;9.540;2022-10-03T09:19:05;8.88;;;2.10;;
75135;SDS011;63707;52.212;9.540;2022-10-03T09:27:50;6.05;;;1.35;;
75135;SDS011;63707;52.212;9.540;2022-10-03T09:30:40;8.43;;;1.77;;
75135;SDS011;63707;52.212;9.540;2022-10-03T09:33:39;5.97;;;1.75;;
75135;SDS011;63707;52.212;9.540;2022-10-03T09:39:34;9.48;;;1.70;;
75135;SDS011;63707;52.212;9.540;2022-10-03T09:42:41;9.63;;;1.35;;
75135;SDS011;63707;52.212;9.540;2022-10-03T09:48:58;8.55;;;1.83;;
75135;SDS011;63707;52.212;9.540;2022-10-03T09:51:54;8.18;;;1.65;;
75135;SDS011;63707;52.212;9.540;2022-10-03T09:54:39;7.35;;;1.77;;
75135;SDS011;63707;52.212;9.540;2022-10-03T09:57:42;9.02;;;2.78;;
75135;SDS011;63707;52.212;9.540;2022-10-03T10:00:24;7.32;;;1.80;;
75135;SDS011;63707;52.212;9.540;2022-10-03T10:03:04;10.10;;;2.10;;
75135;SDS011;63707;52.212;9.540;2022-10-03T10:05:54;7.97;;;1.48;;
75135;SDS011;63707;52.212;9.540;2022-10-03T10:08:40;8.75;;;1.52;;
75135;SDS011;63707;52.212;9.540;2022-10-03T10:11:29;7.97;;;1.30;;
75135;SDS011;63707;52.212;9.540;2022-10-03T10:14:12;10.05;;;1.58;;
75135;SDS011;63707;52.212;9.540;2022-10-03T10:19:54;9.68;;;1.45;;
75135;SDS011;63707;52.212;9.540;2022-10-03T10:22:54;7.30;;;1.38;;
75135;SDS011;63707;52.212;9.540;2022-10-03T10:28:46;7.83;;;2.00;;
75135;SDS011;63707;52.212;9.540;2022-10-03T10:31:50;7.53;;;1.30;;
75135;SDS011;63707;52.212;9.540;2022-10-03T10:34:52;7.15;;;1.27;;
75135;SDS011;63707;52.212;9.540;2022-10-03T10:38:01;4.82;;;1.33;;
75135;SDS011;63707;52.212;9.540;2022-10-03T10:40:48;5.28;;;0.95;;
75135;SDS011;63707;52.212;9.540;2022-10-03T10:44:02;5.00;;;1.10;;
75135;SDS011;63707;52.212;9.540;2022-10-03T11:08:36;4.75;;;2.03;;
75135;SDS011;63707;52.212;9.540;2022-10-03T11:11:29;5.50;;;1.40;;
75135;SDS011;63707;52.212;9.540;2022-10-03T11:20:24;3.60;;;0.80;;
75135;SDS011;63707;52.212;9.540;2022-10-03T11:23:36;4.32;;;0.73;;
75135;SDS011;63707;52.212;9.540;2022-10-03T11:38:47;5.05;;;0.88;;
75135;SDS011;63707;52.212;9.540;2022-10-03T11:41:21;5.93;;;0.80;;
75135;SDS011;63707;52.212;9.540;2022-10-03T11:44:05;5.72;;;0.80;;
75135;SDS011;63707;52.212;9.540;2022-10-03T11:46:45;3.75;;;0.80;;
75135;SDS011;63707;52.212;9.540;2022-10-03T11:49:20;5.47;;;1.15;;
75135;SDS011;63707;52.212;9.540;2022-10-03T11:52:05;3.97;;;0.75;;
75135;SDS011;63707;52.212;9.540;2022-10-03T11:54:41;3.75;;;0.95;;
75135;SDS011;63707;52.212;9.540;2022-10-03T11:57:12;10.77;;;1.20;;
75135;SDS011;63707;52.212;9.540;2022-10-03T11:59:52;5.93;;;1.00;;
75135;SDS011;63707;52.212;9.540;2022-10-03T12:02:34;6.97;;;1.30;;
75135;SDS011;63707;52.212;9.540;2022-10-03T12:05:17;8.48;;;1.50;;
75135;SDS011;63707;52.212;9.540;2022-10-03T12:07:56;6.13;;;1.48;;
75135;SDS011;63707;52.212;9.540;2022-10-03T12:10:58;3.33;;;0.75;;
75135;SDS011;63707;52.212;9.540;2022-10-03T12:13:34;6.82;;;1.30;;
75135;SDS011;63707;52.212;9.540;2022-10-03T12:16:05;8.02;;;0.90;;
75135;SDS011;63707;52.212;9.540;2022-10-03T12:18:50;10.43;;;1.38;;
75135;SDS011;63707;52.212;9.540;2022-10-03T12:21:21;9.55;;;1.13;;
75135;SDS011;63707;52.212;9.540;2022-10-03T12:24:00;9.52;;;0.98;;
75135;SDS011;63707;52.212;9.540;2022-10-03T12:26:34;6.38;;;0.88;;
75135;SDS011;63707;52.212;9.540;2022-10-03T12:29:08;10.50;;;1.23;;
75135;SDS011;63707;52.212;9.540;2022-10-03T12:31:38;4.38;;;0.90;;
75135;SDS011;63707;52.212;9.540;2022-10-03T12:34:12;9.85;;;1.05;;
75135;SDS011;63707;52.212;9.540;2022-10-03T12:36:50;7.40;;;1.00;;
75135;SDS011;63707;52.212;9.540;2022-10-03T12:39:38;4.78;;;0.88;;
75135;SDS011;63707;52.212;9.540;2022-10-03T12:42:18;8.55;;;0.98;;
75135;SDS011;63707;52.212;9.540;2022-10-03T12:44:53;6.68;;;0.90;;
75135;SDS011;63707;52.212;9.540;2022-10-03T12:47:26;11.48;;;1.00;;
75135;SDS011;63707;52.212;9.540;2022-10-03T12:50:02;6.45;;;0.90;;
75135;SDS011;63707;52.212;9.540;2022-10-03T12:52:38;5.40;;;0.75;;
75135;SDS011;63707;52.212;9.540;2022-10-03T12:55:18;4.18;;;0.90;;
75135;SDS011;63707;52.212;9.540;2022-10-03T12:57:51;6.85;;;0.95;;
75135;SDS011;63707;52.212;9.540;2022-10-03T13:00:22;7.25;;;1.00;;
75135;SDS011;63707;52.212;9.540;2022-10-03T13:03:02;4.97;;;0.80;;
75135;SDS011;63707;52.212;9.540;2022-10-03T13:05:47;4.15;;;0.88;;
75135;SDS011;63707;52.212;9.540;2022-10-03T13:08:33;5.82;;;0.95;;
75135;SDS011;63707;52.212;9.540;2022-10-03T13:11:17;4.90;;;0.70;;
75135;SDS011;63707;52.212;9.540;2022-10-03T13:13:57;2.63;;;0.75;;
75135;SDS011;63707;52.212;9.540;2022-10-03T13:16:31;9.50;;;1.77;;
75135;SDS011;63707;52.212;9.540;2022-10-03T13:19:06;4.85;;;0.75;;
75135;SDS011;63707;52.212;9.540;2022-10-03T13:21:43;3.30;;;0.70;;
75135;SDS011;63707;52.212;9.540;2022-10-03T13:24:21;4.78;;;0.80;;
75135;SDS011;63707;52.212;9.540;2022-10-03T13:26:58;8.50;;;1.05;;
75135;SDS011;63707;52.212;9.540;2022-10-03T13:29:35;6.63;;;0.85;;
75135;SDS011;63707;52.212;9.540;2022-10-03T13:32:11;4.07;;;0.70;;
75135;SDS011;63707;52.212;9.540;2022-10-03T13:35:02;2.60;;;0.90;;
75135;SDS011;63707;52.212;9.540;2022-10-03T13:38:11;4.03;;;0.77;;
75135;SDS011;63707;52.212;9.540;2022-10-03T13:40:43;5.90;;;0.82;;
75135;SDS011;63707;52.212;9.540;2022-10-03T13:43:18;4.57;;;0.70;;
75135;SDS011;63707;52.212;9.540;2022-10-03T13:45:49;6.85;;;1.20;;
75135;SDS011;63707;52.212;9.540;2022-10-03T13:48:21;7.25;;;1.08;;
75135;SDS011;63707;52.212;9.540;2022-10-03T13:50:52;6.10;;;0.85;;
75135;SDS011;63707;52.212;9.540;2022-10-03T13:53:26;8.75;;;0.93;;
75135;SDS011;63707;52.212;9.540;2022-10-03T13:56:07;3.47;;;1.27;;
75135;SDS011;63707;52.212;9.540;2022-10-03T13:58:41;3.85;;;0.95;;
75135;SDS011;63707;52.212;9.540;2022-10-03T14:04:23;5.28;;;1.23;;
75135;SDS011;63707;52.212;9.540;2022-10-03T14:07:09;3.40;;;1.35;;
75135;SDS011;63707;52.212;9.540;2022-10-03T14:09:51;2.25;;;0.93;;
75135;SDS011;63707;52.212;9.540;2022-10-03T14:12:36;6.78;;;0.90;;
75135;SDS011;63707;52.212;9.540;2022-10-03T14:15:22;4.82;;;0.93;;
75135;SDS011;63707;52.212;9.540;2022-10-03T14:17:54;5.72;;;0.95;;
75135;SDS011;63707;52.212;9.540;2022-10-03T14:20:27;6.68;;;0.85;;
75135;SDS011;63707;52.212;9.540;2022-10-03T14:23:00;21.95;;;1.75;;
75135;SDS011;63707;52.212;9.540;2022-10-03T14:25:36;4.97;;;1.00;;
75135;SDS011;63707;52.212;9.540;2022-10-03T14:28:09;5.07;;;0.75;;
75135;SDS011;63707;52.212;9.540;2022-10-03T14:30:45;3.63;;;0.63;;
75135;SDS011;63707;52.212;9.540;2022-10-03T14:33:22;9.43;;;1.25;;
75135;SDS011;63707;52.212;9.540;2022-10-03T14:36:00;6.43;;;0.90;;
75135;SDS011;63707;52.212;9.540;2022-10-03T14:38:39;4.70;;;0.60;;
75135;SDS011;63707;52.212;9.540;2022-10-03T14:41:33;4.38;;;0.82;;
75135;SDS011;63707;52.212;9.540;2022-10-03T14:44:06;6.63;;;1.33;;
75135;SDS011;63707;52.212;9.540;2022-10-03T14:46:39;5.63;;;0.98;;
75135;SDS011;63707;52.212;9.540;2022-10-03T14:49:13;5.60;;;1.10;;
75135;SDS011;63707;52.212;9.540;2022-10-03T14:51:45;4.87;;;1.07;;
75135;SDS011;63707;52.212;9.540;2022-10-03T14:54:16;2.70;;;0.52;;
75135;SDS011;63707;52.212;9.540;2022-10-03T14:56:44;6.18;;;1.17;;
75135;SDS011;63707;52.212;9.540;2022-10-03T14:59:11;5.30;;;1.02;;
75135;SDS011;63707;52.212;9.540;2022-10-03T15:01:48;4.10;;;0.70;;
75135;SDS011;63707;52.212;9.540;2022-10-03T15:04:16;12.43;;;1.00;;
75135;SDS011;63707;52.212;9.540;2022-10-03T15:06:52;12.30;;;1.42;;
75135;SDS011;63707;52.212;9.540;2022-10-03T15:09:29;6.90;;;0.80;;
75135;SDS011;63707;52.212;9.540;2022-10-03T15:11:59;5.57;;;1.00;;
75135;SDS011;63707;52.212;9.540;2022-10-03T15:14:32;5.55;;;0.93;;
75135;SDS011;63707;52.212;9.540;2022-10-03T15:17:03;4.75;;;0.80;;
75135;SDS011;63707;52.212;9.540;2022-10-03T15:19:32;7.00;;;1.10;;
75135;SDS011;63707;52.212;9.540;2022-10-03T15:22:04;6.40;;;0.85;;
75135;SDS011;63707;52.212;9.540;2022-10-03T15:24:47;1.52;;;0.73;;
75135;SDS011;63707;52.212;9.540;2022-10-03T15:27:15;5.47;;;0.95;;
75135;SDS011;63707;52.212;9.540;2022-10-03T15:29:45;6.20;;;0.90;;
75135;SDS011;63707;52.212;9.540;2022-10-03T15:32:19;5.18;;;1.23;;
75135;SDS011;63707;52.212;9.540;2022-10-03T15:34:49;3.28;;;0.90;;
75135;SDS011;63707;52.212;9.540;2022-10-03T15:37:20;5.63;;;0.98;;
75135;SDS011;63707;52.212;9.540;2022-10-03T15:39:48;3.55;;;0.93;;
75135;SDS011;63707;52.212;9.540;2022-10-03T15:42:20;3.45;;;0.82;;
75135;SDS011;63707;52.212;9.540;2022-10-03T15:44:49;7.40;;;0.65;;
75135;SDS011;63707;52.212;9.540;2022-10-03T15:47:19;6.10;;;0.90;;
75135;SDS011;63707;52.212;9.540;2022-10-03T15:49:47;4.63;;;1.02;;
75135;SDS011;63707;52.212;9.540;2022-10-03T15:52:20;3.72;;;0.95;;
75135;SDS011;63707;52.212;9.540;2022-10-03T15:54:50;3.38;;;0.82;;
75135;SDS011;63707;52.212;9.540;2022-10-03T15:57:22;9.77;;;0.80;;
75135;SDS011;63707;52.212;9.540;2022-10-03T15:59:51;6.30;;;0.90;;
75135;SDS011;63707;52.212;9.540;2022-10-03T16:02:22;4.03;;;0.70;;
75135;SDS011;63707;52.212;9.540;2022-10-03T16:04:54;5.97;;;0.73;;
75135;SDS011;63707;52.212;9.540;2022-10-03T16:07:23;4.45;;;0.90;;
75135;SDS011;63707;52.212;9.540;2022-10-03T16:10:00;10.70;;;1.90;;
75135;SDS011;63707;52.212;9.540;2022-10-03T16:12:38;4.00;;;1.08;;
75135;SDS011;63707;52.212;9.540;2022-10-03T16:15:17;10.35;;;0.95;;
75135;SDS011;63707;52.212;9.540;2022-10-03T16:17:47;2.15;;;0.70;;
75135;SDS011;63707;52.212;9.540;2022-10-03T16:20:17;4.78;;;1.23;;
75135;SDS011;63707;52.212;9.540;2022-10-03T16:22:46;9.25;;;1.33;;
75135;SDS011;63707;52.212;9.540;2022-10-03T16:25:16;3.88;;;1.10;;
75135;SDS011;63707;52.212;9.540;2022-10-03T16:27:45;6.10;;;1.10;;
75135;SDS011;63707;52.212;9.540;2022-10-03T16:30:21;6.88;;;1.40;;
75135;SDS011;63707;52.212;9.540;2022-10-03T16:32:58;11.93;;;1.60;;
75135;SDS011;63707;52.212;9.540;2022-10-03T16:35:32;7.30;;;1.20;;
75135;SDS011;63707;52.212;9.540;2022-10-03T16:38:00;7.90;;;1.65;;
75135;SDS011;63707;52.212;9.540;2022-10-03T16:40:29;6.35;;;1.90;;
75135;SDS011;63707;52.212;9.540;2022-10-03T16:42:57;9.88;;;4.35;;
75135;SDS011;63707;52.212;9.540;2022-10-03T16:45:25;8.23;;;3.65;;
75135;SDS011;63707;52.212;9.540;2022-10-03T16:47:55;4.13;;;1.40;;
75135;SDS011;63707;52.212;9.540;2022-10-03T16:50:45;6.10;;;1.92;;
75135;SDS011;63707;52.212;9.540;2022-10-03T16:53:16;6.53;;;1.85;;
75135;SDS011;63707;52.212;9.540;2022-10-03T16:55:44;8.18;;;1.90;;
75135;SDS011;63707;52.212;9.540;2022-10-03T16:58:14;12.57;;;1.35;;
75135;SDS011;63707;52.212;9.540;2022-10-03T17:00:47;4.25;;;1.40;;
75135;SDS011;63707;52.212;9.540;2022-10-03T17:03:19;4.07;;;0.90;;
75135;SDS011;63707;52.212;9.540;2022-10-03T17:05:47;5.45;;;0.90;;
75135;SDS011;63707;52.212;9.540;2022-10-03T17:08:16;4.63;;;1.33;;
75135;SDS011;63707;52.212;9.540;2022-10-03T17:10:45;7.78;;;2.03;;
75135;SDS011;63707;52.212;9.540;2022-10-03T17:13:17;8.43;;;2.33;;
75135;SDS011;63707;52.212;9.540;2022-10-03T17:15:47;15.15;;;6.50;;
75135;SDS011;63707;52.212;9.540;2022-10-03T17:18:21;10.70;;;3.65;;
75135;SDS011;63707;52.212;9.540;2022-10-03T17:20:51;7.18;;;3.15;;
75135;SDS011;63707;52.212;9.540;2022-10-03T17:23:23;9.43;;;3.78;;
75135;SDS011;63707;52.212;9.540;2022-10-03T17:25:57;13.90;;;4.38;;
75135;SDS011;63707;52.212;9.540;2022-10-03T17:28:29;10.10;;;4.25;;
75135;SDS011;63707;52.212;9.540;2022-10-03T17:31:04;9.25;;;4.10;;
75135;SDS011;63707;52.212;9.540;2022-10-03T17:33:42;16.45;;;6.30;;
75135;SDS011;63707;52.212;9.540;2022-10-03T17:36:22;12.25;;;3.80;;
75135;SDS011;63707;52.212;9.540;2022-10-03T17:39:12;6.18;;;3.22;;
75135;SDS011;63707;52.212;9.540;2022-10-03T17:41:51;12.52;;;5.57;;
75135;SDS011;63707;52.212;9.540;2022-10-03T17:44:24;13.18;;;3.03;;
75135;SDS011;63707;52.212;9.540;2022-10-03T17:47:01;9.65;;;3.58;;
75135;SDS011;63707;52.212;9.540;2022-10-03T17:49:38;19.42;;;8.07;;
75135;SDS011;63707;52.212;9.540;2022-10-03T17:52:11;5.85;;;2.20;;
75135;SDS011;63707;52.212;9.540;2022-10-03T17:54:40;15.13;;;2.05;;
75135;SDS011;63707;52.212;9.540;2022-10-03T17:57:12;7.53;;;3.45;;
75135;SDS011;63707;52.212;9.540;2022-10-03T17:59:47;6.18;;;2.28;;
75135;SDS011;63707;52.212;9.540;2022-10-03T18:02:19;11.57;;;2.97;;
75135;SDS011;63707;52.212;9.540;2022-10-03T18:04:51;4.82;;;2.08;;
75135;SDS011;63707;52.212;9.540;2022-10-03T18:07:25;10.55;;;5.05;;
75135;SDS011;63707;52.212;9.540;2022-10-03T18:09:53;16.05;;;4.00;;
75135;SDS011;63707;52.212;9.540;2022-10-03T18:12:21;9.35;;;2.58;;
75135;SDS011;63707;52.212;9.540;2022-10-03T18:17:57;6.38;;;1.60;;
75135;SDS011;63707;52.212;9.540;2022-10-03T18:20:38;8.73;;;1.50;;
75135;SDS011;63707;52.212;9.540;2022-10-03T18:23:10;9.25;;;1.83;;
75135;SDS011;63707;52.212;9.540;2022-10-03T18:25:48;11.38;;;1.88;;
75135;SDS011;63707;52.212;9.540;2022-10-03T18:28:23;5.40;;;1.25;;
75135;SDS011;63707;52.212;9.540;2022-10-03T18:30:54;2.67;;;1.58;;
75135;SDS011;63707;52.212;9.540;2022-10-03T18:33:23;4.85;;;1.88;;
75135;SDS011;63707;52.212;9.540;2022-10-03T18:35:55;17.10;;;3.40;;
75135;SDS011;63707;52.212;9.540;2022-10-03T18:38:22;15.50;;;5.85;;
75135;SDS011;63707;52.212;9.540;2022-10-03T18:40:51;9.88;;;3.78;;
75135;SDS011;63707;52.212;9.540;2022-10-03T18:43:21;11.07;;;2.90;;
75135;SDS011;63707;52.212;9.540;2022-10-03T18:45:51;6.30;;;2.25;;
75135;SDS011;63707;52.212;9.540;2022-10-03T18:48:25;6.47;;;2.20;;
75135;SDS011;63707;52.212;9.540;2022-10-03T18:51:00;5.32;;;2.10;;
75135;SDS011;63707;52.212;9.540;2022-10-03T18:53:36;2.65;;;1.58;;
75135;SDS011;63707;52.212;9.540;2022-10-03T18:56:04;7.85;;;1.73;;
75135;SDS011;63707;52.212;9.540;2022-10-03T18:58:34;6.50;;;1.77;;
75135;SDS011;63707;52.212;9.540;2022-10-03T19:01:03;10.63;;;2.00;;